Time;durP1;ratioP1;P1;durP2;ratioP2;P2;SDS_P1;SDS_P2;PMS_P1;PMS_P2;Temp;Humidity;BMP_temperature;BMP_pressure;BME280_temperature;BME280_humidity;BME280_pressure;Samples;Min_cycle;Max_cycle;Signal;HPM_P1;HPM_P2
2022/09/24 00:00:14;;;;;;;14.63;10.37;;;11.80;1.00;;;;;;5040267;28;20413;-82
2022/09/24 00:02:42;;;;;;;12.20;9.77;;;11.80;1.00;;;;;;5033095;28;20444;-84
2022/09/24 00:05:21;;;;;;;11.73;9.10;;;11.80;1.00;;;;;;5046180;28;20476;-82
2022/09/24 00:08:01;;;;;;;12.60;10.07;;;11.70;1.00;;;;;;5051119;28;20804;-82
2022/09/24 00:10:43;;;;;;;11.37;8.80;;;11.70;1.00;;;;;;5045802;28;21318;-83
2022/09/24 00:13:24;;;;;;;9.80;8.40;;;11.70;1.00;;;;;;5047051;28;20461;-88
2022/09/24 00:16:14;;;;;;;10.67;8.53;;;11.70;1.00;;;;;;5036511;28;20439;-89
2022/09/24 00:18:44;;;;;;;11.23;9.73;;;11.60;1.00;;;;;;5023277;28;20461;-84
2022/09/24 00:21:21;;;;;;;9.50;8.50;;;11.60;1.00;;;;;;5055970;28;20501;-83
2022/09/24 00:23:58;;;;;;;9.40;8.40;;;11.50;1.00;;;;;;5050412;28;20453;-84
2022/09/24 00:29:24;;;;;;;13.77;10.00;;;11.50;1.00;;;;;;5003584;28;20516;-82
2022/09/24 00:31:54;;;;;;;10.90;8.83;;;11.40;1.00;;;;;;5026051;28;20478;-84
2022/09/24 00:34:25;;;;;;;13.13;8.97;;;11.40;1.00;;;;;;5022390;28;20410;-82
2022/09/24 00:37:03;;;;;;;12.07;8.93;;;11.40;1.00;;;;;;5048261;28;20495;-83
2022/09/24 00:39:33;;;;;;;10.33;9.00;;;11.40;1.00;;;;;;5047920;28;20464;-82
2022/09/24 00:42:22;;;;;;;11.03;9.70;;;11.40;1.00;;;;;;5034526;28;20413;-85
2022/09/24 00:45:04;;;;;;;11.27;9.20;;;11.50;1.00;;;;;;5036797;28;20413;-87
2022/09/24 00:47:44;;;;;;;11.47;8.77;;;11.40;1.00;;;;;;5045158;28;20431;-87
2022/09/24 00:53:33;;;;;;;10.73;8.93;;;11.40;1.00;;;;;;5039653;28;20561;-88
2022/09/24 00:56:14;;;;;;;10.77;8.67;;;11.40;1.00;;;;;;5041057;28;20519;-87
2022/09/24 00:58:56;;;;;;;11.83;8.70;;;11.40;1.00;;;;;;5047018;28;20484;-82
2022/09/24 01:01:25;;;;;;;14.13;10.10;;;11.30;1.00;;;;;;5050418;28;20524;-88
2022/09/24 01:04:03;;;;;;;11.10;8.97;;;11.30;1.00;;;;;;5037298;28;20432;-87
2022/09/24 01:06:34;;;;;;;12.10;9.20;;;11.20;1.00;;;;;;5046053;28;20471;-88
2022/09/24 01:09:14;;;;;;;12.70;9.77;;;11.20;1.00;;;;;;5012112;28;20483;-88
2022/09/24 01:12:05;;;;;;;11.87;9.50;;;11.20;1.00;;;;;;5050295;28;20448;-89
2022/09/24 01:15:05;;;;;;;12.47;9.50;;;11.20;1.00;;;;;;5058766;28;20472;-88
2022/09/24 01:17:45;;;;;;;11.30;9.10;;;11.20;1.00;;;;;;5049585;28;20465;-81
2022/09/24 01:20:54;;;;;;;11.33;8.97;;;11.20;1.00;;;;;;5046213;28;20444;-84
2022/09/24 01:23:55;;;;;;;11.67;9.87;;;11.20;1.00;;;;;;5032116;28;20468;-82
2022/09/24 01:26:54;;;;;;;10.97;8.80;;;11.20;1.00;;;;;;5047441;28;20463;-85
2022/09/24 01:29:45;;;;;;;11.60;9.90;;;11.10;1.00;;;;;;5037373;28;20476;-86
2022/09/24 01:32:22;;;;;;;12.20;9.10;;;11.10;1.00;;;;;;5063248;28;20433;-87
2022/09/24 01:35:20;;;;;;;11.70;9.60;;;11.10;1.00;;;;;;5031519;28;20419;-82
2022/09/24 01:37:56;;;;;;;12.60;9.10;;;11.10;1.00;;;;;;5005289;28;20493;-88
2022/09/24 01:43:25;;;;;;;12.93;9.73;;;11.20;1.00;;;;;;5033535;28;20496;-88
2022/09/24 01:46:05;;;;;;;12.97;9.47;;;11.20;1.00;;;;;;5012593;28;20480;-86
2022/09/24 01:48:44;;;;;;;11.30;9.50;;;11.20;1.00;;;;;;5051947;28;20447;-88
2022/09/24 01:51:42;;;;;;;12.13;9.20;;;11.20;1.00;;;;;;5038375;28;20421;-82
2022/09/24 01:54:33;;;;;;;11.40;9.30;;;11.20;1.00;;;;;;5009277;28;20483;-83
2022/09/24 01:57:26;;;;;;;11.20;9.10;;;11.30;1.00;;;;;;5003622;28;20449;-84
2022/09/24 02:00:11;;;;;;;10.33;8.53;;;11.30;1.00;;;;;;5005713;28;20627;-86
2022/09/24 02:02:47;;;;;;;12.30;8.87;;;11.30;1.00;;;;;;5019253;28;20461;-83
2022/09/24 02:05:28;;;;;;;12.50;9.43;;;11.30;1.00;;;;;;5013850;28;20465;-82
2022/09/24 02:08:12;;;;;;;10.50;8.60;;;11.30;1.00;;;;;;5012192;28;20450;-83
2022/09/24 02:10:49;;;;;;;12.63;9.60;;;11.30;1.00;;;;;;5018045;28;20441;-82
2022/09/24 02:13:24;;;;;;;12.60;8.97;;;11.30;1.00;;;;;;5020870;28;20418;-82
2022/09/24 02:16:00;;;;;;;12.20;8.63;;;11.30;1.00;;;;;;5010120;28;20500;-82
2022/09/24 02:18:39;;;;;;;11.00;9.13;;;11.30;1.00;;;;;;5013933;28;20464;-85
2022/09/24 02:21:32;;;;;;;12.33;9.40;;;11.40;1.00;;;;;;5017004;28;20438;-84
2022/09/24 02:27:03;;;;;;;10.87;8.73;;;11.30;1.00;;;;;;5001607;28;20437;-88
2022/09/24 02:29:31;;;;;;;13.03;8.77;;;11.40;1.00;;;;;;5011911;28;20401;-88
2022/09/24 02:32:10;;;;;;;11.60;9.13;;;11.40;1.00;;;;;;5013409;28;20467;-87
2022/09/24 02:34:53;;;;;;;16.10;10.17;;;11.40;1.00;;;;;;5011381;28;20403;-88
2022/09/24 02:40:14;;;;;;;11.47;9.80;;;11.40;1.00;;;;;;5006389;28;21199;-88
2022/09/24 02:42:42;;;;;;;11.10;8.77;;;11.50;1.00;;;;;;5018304;28;20431;-88
2022/09/24 02:45:13;;;;;;;14.50;12.97;;;11.50;1.00;;;;;;5014547;28;20543;-89
2022/09/24 02:47:43;;;;;;;11.67;9.23;;;11.50;1.00;;;;;;5016561;28;20431;-82
2022/09/24 02:50:14;;;;;;;14.53;10.80;;;11.50;1.00;;;;;;5018557;28;20438;-84
2022/09/24 02:52:44;;;;;;;36.50;31.80;;;11.40;1.00;;;;;;5025477;28;20502;-85
2022/09/24 02:55:20;;;;;;;9.83;7.93;;;11.40;1.00;;;;;;5035899;28;20421;-83
2022/09/24 02:58:02;;;;;;;14.60;10.10;;;11.50;1.00;;;;;;5051511;28;20433;-86
2022/09/24 03:00:40;;;;;;;11.50;9.10;;;11.40;1.00;;;;;;5054030;28;20429;-82
2022/09/24 03:03:13;;;;;;;10.67;9.30;;;11.50;1.00;;;;;;5024415;28;20501;-82
2022/09/24 03:05:48;;;;;;;13.60;9.43;;;11.50;1.00;;;;;;5038183;28;20416;-82
2022/09/24 03:08:14;;;;;;;14.57;9.70;;;11.50;1.00;;;;;;5053064;28;20467;-82
2022/09/24 03:10:45;;;;;;;11.93;9.23;;;11.40;1.00;;;;;;5057200;28;20463;-84
2022/09/24 03:13:13;;;;;;;14.07;9.93;;;11.40;1.00;;;;;;5049481;28;20457;-82
2022/09/24 03:15:43;;;;;;;12.20;9.33;;;11.40;1.00;;;;;;5040093;28;20427;-82
2022/09/24 03:18:15;;;;;;;16.13;9.87;;;11.40;1.00;;;;;;5048232;28;20573;-81
2022/09/24 03:21:07;;;;;;;12.17;8.90;;;11.40;1.00;;;;;;5051027;28;20492;-84
2022/09/24 03:23:39;;;;;;;13.07;9.20;;;11.40;1.00;;;;;;5052184;28;20467;-82
2022/09/24 03:26:06;;;;;;;11.27;8.87;;;11.40;1.00;;;;;;5055454;28;20472;-85
2022/09/24 03:28:47;;;;;;;12.67;9.93;;;11.40;1.00;;;;;;5053719;28;20469;-83
2022/09/24 03:31:22;;;;;;;12.87;10.30;;;11.40;1.00;;;;;;5054431;28;20422;-82
2022/09/24 03:33:52;;;;;;;11.40;8.60;;;11.30;1.00;;;;;;5049112;28;20462;-83
2022/09/24 03:36:28;;;;;;;12.10;9.43;;;11.10;1.00;;;;;;5056420;28;20419;-81
2022/09/24 03:38:59;;;;;;;11.90;9.13;;;11.10;1.00;;;;;;5051077;28;20488;-82
2022/09/24 03:41:30;;;;;;;13.30;9.87;;;11.20;1.00;;;;;;5056235;28;20445;-83
2022/09/24 03:43:59;;;;;;;12.27;9.50;;;11.20;1.00;;;;;;5055709;28;20436;-83
2022/09/24 03:46:28;;;;;;;13.60;11.10;;;11.20;1.00;;;;;;5058458;28;20411;-81
2022/09/24 03:48:59;;;;;;;10.57;8.43;;;11.20;1.00;;;;;;5056917;28;20420;-83
2022/09/24 03:51:36;;;;;;;11.77;9.67;;;11.30;1.00;;;;;;5055954;28;22189;-82
2022/09/24 03:54:09;;;;;;;12.60;9.97;;;11.20;1.00;;;;;;5040301;28;20459;-82
2022/09/24 03:56:36;;;;;;;14.50;10.13;;;11.20;1.00;;;;;;5049469;28;21187;-82
2022/09/24 03:59:05;;;;;;;22.47;20.10;;;11.10;1.00;;;;;;5044479;28;21265;-82
2022/09/24 04:01:37;;;;;;;12.63;9.80;;;11.20;1.00;;;;;;5044938;28;20460;-83
2022/09/24 04:04:04;;;;;;;11.40;9.40;;;11.10;1.00;;;;;;5036280;28;20456;-84
2022/09/24 04:06:32;;;;;;;11.40;8.60;;;11.20;1.00;;;;;;5046275;28;20457;-82
2022/09/24 04:09:03;;;;;;;14.10;10.20;;;11.20;1.00;;;;;;5048660;28;21024;-86
2022/09/24 04:11:34;;;;;;;11.23;9.60;;;11.20;1.00;;;;;;5050889;28;20652;-83
2022/09/24 04:14:01;;;;;;;12.17;8.80;;;11.20;1.00;;;;;;5046195;28;21255;-83
2022/09/24 04:16:31;;;;;;;12.90;10.03;;;11.10;1.00;;;;;;5047641;28;21328;-82
2022/09/24 04:18:58;;;;;;;12.40;9.60;;;11.10;1.00;;;;;;5048604;28;20480;-83
2022/09/24 04:21:25;;;;;;;10.47;9.20;;;11.10;1.00;;;;;;5041089;28;20463;-82
2022/09/24 04:23:53;;;;;;;11.57;9.60;;;11.10;1.00;;;;;;5039013;28;21397;-82
2022/09/24 04:26:23;;;;;;;12.97;9.80;;;11.10;1.00;;;;;;5041633;28;20546;-81
2022/09/24 04:28:50;;;;;;;14.43;9.67;;;11.10;1.00;;;;;;5036923;28;20637;-82
2022/09/24 04:31:18;;;;;;;12.70;9.90;;;11.10;1.00;;;;;;5049206;28;20846;-84
2022/09/24 04:33:46;;;;;;;12.20;8.60;;;11.10;1.00;;;;;;5047538;28;20460;-83
2022/09/24 04:36:13;;;;;;;11.53;9.30;;;11.10;1.00;;;;;;5053268;28;20468;-82
2022/09/24 04:38:42;;;;;;;12.83;9.50;;;11.10;1.00;;;;;;5050655;28;20953;-82
2022/09/24 04:41:11;;;;;;;10.67;9.00;;;11.10;1.00;;;;;;5050565;28;20820;-82
2022/09/24 04:43:38;;;;;;;12.97;10.03;;;11.10;1.00;;;;;;5020610;28;20515;-83
2022/09/24 04:46:08;;;;;;;14.03;10.10;;;11.20;1.00;;;;;;5051805;28;20473;-82
2022/09/24 04:48:37;;;;;;;14.97;9.00;;;11.10;1.00;;;;;;5048592;28;20472;-83
2022/09/24 04:51:08;;;;;;;13.40;10.40;;;11.10;1.00;;;;;;5039706;28;20578;-82
2022/09/24 04:53:38;;;;;;;12.50;9.73;;;11.10;1.00;;;;;;5038895;28;20460;-82
2022/09/24 04:56:10;;;;;;;13.20;9.50;;;11.10;1.00;;;;;;5050117;28;21337;-85
2022/09/24 04:58:41;;;;;;;14.00;9.40;;;11.10;1.00;;;;;;5048530;28;20536;-81
2022/09/24 05:01:12;;;;;;;12.43;10.17;;;11.10;1.00;;;;;;5033530;28;20456;-83
2022/09/24 05:03:40;;;;;;;15.03;9.80;;;11.10;1.00;;;;;;5048423;28;20429;-81
2022/09/24 05:06:09;;;;;;;12.43;9.60;;;11.10;1.00;;;;;;5047970;28;21070;-83
2022/09/24 05:08:40;;;;;;;12.10;10.07;;;11.10;1.00;;;;;;5050415;28;20456;-83
2022/09/24 05:11:07;;;;;;;14.37;10.30;;;11.10;1.00;;;;;;5047477;28;20450;-85
2022/09/24 05:13:35;;;;;;;14.10;10.07;;;11.20;1.00;;;;;;5038396;28;20452;-84
2022/09/24 05:16:04;;;;;;;12.33;9.53;;;11.10;1.00;;;;;;5046677;28;21388;-83
2022/09/24 05:18:31;;;;;;;14.20;10.20;;;11.20;1.00;;;;;;5043300;28;20475;-83
2022/09/24 05:20:58;;;;;;;12.40;9.53;;;11.20;1.00;;;;;;5048774;28;20469;-83
2022/09/24 05:23:25;;;;;;;14.03;9.93;;;11.10;1.00;;;;;;5037657;28;21824;-82
2022/09/24 05:28:37;;;;;;;14.53;10.90;;;11.20;1.00;;;;;;5046429;28;20463;-82
2022/09/24 05:31:07;;;;;;;13.03;10.33;;;11.20;1.00;;;;;;5047466;28;20539;-84
2022/09/24 05:33:35;;;;;;;15.00;11.03;;;11.20;1.00;;;;;;5047914;28;20501;-83
2022/09/24 05:36:04;;;;;;;13.23;9.57;;;11.30;1.00;;;;;;5051625;28;20519;-83
2022/09/24 05:38:32;;;;;;;13.23;10.47;;;11.30;1.00;;;;;;5050779;28;21386;-82
2022/09/24 05:40:59;;;;;;;13.70;10.07;;;11.30;1.00;;;;;;5048077;28;20463;-86
2022/09/24 05:43:27;;;;;;;11.50;9.23;;;11.30;1.00;;;;;;5047084;28;20457;-82
2022/09/24 05:45:57;;;;;;;11.33;8.20;;;11.30;1.00;;;;;;5048343;28;20550;-84
2022/09/24 05:48:26;;;;;;;12.77;10.50;;;11.30;1.00;;;;;;5049971;28;21003;-83
2022/09/24 05:50:54;;;;;;;12.47;9.53;;;11.40;1.00;;;;;;5035694;28;20987;-81
2022/09/24 05:53:22;;;;;;;12.17;9.87;;;11.40;1.00;;;;;;5049838;28;20972;-81
2022/09/24 05:55:53;;;;;;;12.47;10.23;;;11.50;1.00;;;;;;5048729;28;20460;-82
2022/09/24 05:58:20;;;;;;;11.00;9.80;;;11.50;1.00;;;;;;5048121;28;20484;-83
2022/09/24 06:00:47;;;;;;;11.20;9.80;;;11.60;1.00;;;;;;5040894;28;20456;-82
2022/09/24 06:03:16;;;;;;;11.27;9.47;;;11.70;1.00;;;;;;5033872;28;20486;-84
2022/09/24 06:05:47;;;;;;;25.63;23.33;;;11.80;1.00;;;;;;5018019;28;20548;-83
2022/09/24 06:08:18;;;;;;;12.40;10.10;;;11.80;1.00;;;;;;5044937;28;20465;-83
2022/09/24 06:10:46;;;;;;;12.63;10.27;;;11.90;1.00;;;;;;5034958;28;20468;-83
2022/09/24 06:13:16;;;;;;;14.23;10.30;;;11.80;1.00;;;;;;5047801;28;20544;-84
2022/09/24 06:15:43;;;;;;;13.93;10.97;;;11.80;1.00;;;;;;5047786;28;20432;-85
2022/09/24 06:18:11;;;;;;;14.07;11.20;;;11.90;1.00;;;;;;5049103;28;20449;-83
2022/09/24 06:20:39;;;;;;;14.00;10.83;;;11.90;1.00;;;;;;5050615;28;20460;-81
2022/09/24 06:23:08;;;;;;;16.40;10.93;;;11.90;1.00;;;;;;5032811;28;20561;-83
2022/09/24 06:25:35;;;;;;;15.80;11.03;;;12.00;1.00;;;;;;5046751;28;20935;-83
2022/09/24 06:28:04;;;;;;;11.67;9.60;;;12.00;1.00;;;;;;5044345;28;20460;-82
2022/09/24 06:30:34;;;;;;;14.13;9.90;;;12.00;1.00;;;;;;5044816;28;20428;-82
2022/09/24 06:33:04;;;;;;;12.07;9.30;;;12.00;1.00;;;;;;5035486;28;20432;-83
2022/09/24 06:35:34;;;;;;;14.20;10.40;;;12.00;1.00;;;;;;5045447;28;20492;-82
2022/09/24 06:38:03;;;;;;;11.33;9.50;;;12.00;1.00;;;;;;5048828;28;21414;-84
2022/09/24 06:40:34;;;;;;;12.73;9.73;;;12.10;1.00;;;;;;5043486;28;20527;-84
2022/09/24 06:43:02;;;;;;;13.00;10.90;;;12.10;1.00;;;;;;5037979;28;20849;-81
2022/09/24 06:45:30;;;;;;;15.57;10.83;;;12.20;1.00;;;;;;5047563;28;20582;-81
2022/09/24 06:47:59;;;;;;;15.00;10.90;;;12.30;1.00;;;;;;5046981;28;20478;-82
2022/09/24 06:50:28;;;;;;;12.83;9.70;;;12.40;1.00;;;;;;5034128;28;20551;-82
2022/09/24 06:52:57;;;;;;;10.83;8.53;;;12.40;1.00;;;;;;5032638;28;20468;-81
2022/09/24 06:55:24;;;;;;;11.67;9.90;;;12.50;1.00;;;;;;5047636;28;20468;-81
2022/09/24 06:58:02;;;;;;;11.20;9.97;;;12.60;1.00;;;;;;5048730;28;20491;-81
2022/09/24 07:00:33;;;;;;;10.90;9.67;;;12.60;1.00;;;;;;5050121;28;20435;-82
2022/09/24 07:03:03;;;;;;;13.33;9.87;;;12.70;1.00;;;;;;5047469;28;20472;-81
2022/09/24 07:05:30;;;;;;;12.40;9.93;;;12.80;1.00;;;;;;5045919;28;20530;-83
2022/09/24 07:07:58;;;;;;;16.27;11.40;;;12.80;1.00;;;;;;5049422;28;20478;-82
2022/09/24 07:10:26;;;;;;;12.07;10.20;;;12.80;1.00;;;;;;5040381;28;20438;-80
2022/09/24 07:12:55;;;;;;;13.50;11.40;;;12.80;1.00;;;;;;5035941;28;20514;-81
2022/09/24 07:15:23;;;;;;;12.53;9.97;;;12.80;1.00;;;;;;5044366;28;20464;-81
2022/09/24 07:17:55;;;;;;;13.07;10.73;;;12.80;1.00;;;;;;5043275;28;20469;-85
2022/09/24 07:20:22;;;;;;;15.63;10.20;;;12.90;1.00;;;;;;5046137;28;20452;-83
2022/09/24 07:22:53;;;;;;;13.77;10.30;;;12.80;1.00;;;;;;5049097;28;21430;-81
2022/09/24 07:25:21;;;;;;;11.90;9.97;;;12.80;1.00;;;;;;5042562;28;20479;-81
2022/09/24 07:27:48;;;;;;;13.33;10.07;;;12.80;1.00;;;;;;5043711;28;20507;-80
2022/09/24 07:33:34;;;;;;;12.00;10.17;;;12.90;1.00;;;;;;5024060;28;20772;-80
2022/09/24 07:36:06;;;;;;;14.30;10.80;;;13.00;1.00;;;;;;5041108;28;20467;-78
2022/09/24 07:38:35;;;;;;;11.93;9.80;;;13.10;1.00;;;;;;5043059;28;20558;-77
2022/09/24 07:41:07;;;;;;;12.37;10.60;;;13.10;1.00;;;;;;5046847;28;20477;-79
2022/09/24 07:43:33;;;;;;;13.43;11.50;;;13.20;1.00;;;;;;5044091;28;20491;-79
2022/09/24 07:46:05;;;;;;;12.17;9.80;;;13.20;1.00;;;;;;5029413;28;20665;-77
2022/09/24 07:48:35;;;;;;;20.50;10.47;;;13.30;1.00;;;;;;5046394;28;21118;-78
2022/09/24 07:51:01;;;;;;;13.23;10.13;;;13.40;1.00;;;;;;5043638;28;20445;-76
2022/09/24 07:53:28;;;;;;;10.80;9.60;;;13.50;1.00;;;;;;5049468;28;20566;-76
2022/09/24 07:56:01;;;;;;;16.80;10.63;;;13.50;1.00;;;;;;5046583;28;20471;-76
2022/09/24 07:58:27;;;;;;;12.13;10.00;;;13.50;1.00;;;;;;5049588;28;20472;-76
2022/09/24 08:00:58;;;;;;;11.90;10.20;;;13.60;1.00;;;;;;5037828;28;20888;-80
2022/09/24 08:03:30;;;;;;;13.87;10.70;;;13.70;1.00;;;;;;5048923;28;20544;-78
2022/09/24 08:05:58;;;;;;;15.63;10.87;;;13.80;1.00;;;;;;5045664;28;20905;-77
2022/09/24 08:08:26;;;;;;;15.10;10.60;;;13.80;1.00;;;;;;5051372;28;21245;-81
2022/09/24 08:10:53;;;;;;;12.63;9.50;;;13.70;1.00;;;;;;5046416;28;20899;-77
2022/09/24 08:13:20;;;;;;;12.53;10.30;;;13.90;1.00;;;;;;5048059;28;21431;-76
2022/09/24 08:15:47;;;;;;;13.10;11.57;;;14.00;1.00;;;;;;5048745;28;20468;-77
2022/09/24 08:18:14;;;;;;;12.13;9.93;;;14.10;1.00;;;;;;5048495;28;20475;-80
2022/09/24 08:20:42;;;;;;;14.03;10.40;;;14.10;1.00;;;;;;5038881;28;20457;-77
2022/09/24 08:23:11;;;;;;;14.20;11.40;;;14.20;1.00;;;;;;5050969;28;20461;-77
2022/09/24 08:25:38;;;;;;;12.50;10.20;;;14.20;1.00;;;;;;5047883;28;20547;-75
2022/09/24 08:28:07;;;;;;;14.93;11.33;;;14.30;1.00;;;;;;5048768;28;20459;-76
2022/09/24 08:30:35;;;;;;;13.10;9.70;;;14.20;1.00;;;;;;5049964;28;20547;-77
2022/09/24 08:33:03;;;;;;;12.80;10.90;;;14.30;1.00;;;;;;5051570;28;20450;-75
2022/09/24 08:35:33;;;;;;;12.00;9.27;;;14.40;1.00;;;;;;5049167;28;20448;-75
2022/09/24 08:38:02;;;;;;;15.20;10.67;;;14.50;1.00;;;;;;5049487;28;21060;-77
2022/09/24 08:40:33;;;;;;;11.47;9.97;;;14.60;1.00;;;;;;5036519;28;20511;-77
2022/09/24 08:43:09;;;;;;;16.20;12.30;;;14.80;1.00;;;;;;5051092;28;20816;-76
2022/09/24 08:48:31;;;;;;;18.67;10.03;;;15.00;1.00;;;;;;5045250;28;20457;-77
2022/09/24 08:51:02;;;;;;;14.20;10.23;;;15.10;1.00;;;;;;5047856;28;20462;-77
2022/09/24 08:53:39;;;;;;;13.80;10.53;;;15.20;1.00;;;;;;5050255;28;20456;-77
2022/09/24 08:56:08;;;;;;;10.30;9.20;;;15.30;1.00;;;;;;5049965;28;20438;-78
2022/09/24 08:58:44;;;;;;;13.83;10.40;;;15.30;1.00;;;;;;5049543;28;20469;-80
2022/09/24 09:01:25;;;;;;;15.13;10.70;;;15.40;1.00;;;;;;5039631;28;20512;-79
2022/09/24 09:03:56;;;;;;;19.13;11.53;;;15.60;1.00;;;;;;5048166;28;20495;-77
2022/09/24 09:06:54;;;;;;;18.37;10.90;;;15.80;1.00;;;;;;5043697;28;20457;-78
2022/09/24 09:09:33;;;;;;;11.03;9.10;;;15.80;1.00;;;;;;5049981;28;20530;-77
2022/09/24 09:12:04;;;;;;;11.30;9.63;;;15.90;1.00;;;;;;5047250;28;20918;-76
2022/09/24 09:14:41;;;;;;;11.87;9.43;;;15.90;1.00;;;;;;5048651;28;20479;-79
2022/09/24 09:17:20;;;;;;;11.77;10.50;;;15.80;1.00;;;;;;5046928;28;20460;-76
2022/09/24 09:19:55;;;;;;;10.80;9.70;;;15.80;1.00;;;;;;5045563;28;20484;-79
2022/09/24 09:22:28;;;;;;;16.07;11.70;;;15.90;1.00;;;;;;5047615;28;20466;-76
2022/09/24 09:25:05;;;;;;;11.97;9.17;;;16.10;1.00;;;;;;5046238;28;20483;-77
2022/09/24 09:27:34;;;;;;;16.97;11.60;;;16.30;1.00;;;;;;5048188;28;20531;-76
2022/09/24 09:30:06;;;;;;;11.10;9.00;;;16.40;1.00;;;;;;5047425;28;20472;-75
2022/09/24 09:32:48;;;;;;;12.67;9.57;;;16.60;1.00;;;;;;5046293;28;20467;-78
2022/09/24 09:35:19;;;;;;;11.47;9.10;;;16.70;1.00;;;;;;5046401;28;20448;-77
2022/09/24 09:37:54;;;;;;;12.20;10.30;;;16.90;1.00;;;;;;5045769;28;20492;-78
2022/09/24 09:40:32;;;;;;;14.13;10.73;;;17.00;1.00;;;;;;5048590;28;20521;-75
2022/09/24 09:43:02;;;;;;;13.13;11.20;;;17.10;1.00;;;;;;5043850;28;20467;-77
2022/09/24 09:45:38;;;;;;;14.20;10.33;;;17.10;1.00;;;;;;5048297;28;20476;-75
2022/09/24 09:48:05;;;;;;;11.33;9.93;;;17.00;1.00;;;;;;5036783;28;20492;-76
2022/09/24 09:50:37;;;;;;;12.13;10.20;;;16.90;1.00;;;;;;5048332;28;20496;-76
2022/09/24 09:53:05;;;;;;;12.17;10.03;;;16.70;1.00;;;;;;5046407;28;20425;-77
2022/09/24 09:55:36;;;;;;;13.00;10.30;;;16.80;1.00;;;;;;5045902;28;20473;-77
2022/09/24 09:58:19;;;;;;;11.43;8.90;;;16.80;1.00;;;;;;5046493;28;20523;-76
2022/09/24 10:00:49;;;;;;;11.23;10.03;;;17.10;1.00;;;;;;5047696;28;21029;-77
2022/09/24 10:03:27;;;;;;;15.27;11.10;;;17.30;1.00;;;;;;5043241;28;20449;-78
2022/09/24 10:05:59;;;;;;;13.20;10.30;;;17.50;1.00;;;;;;5045294;28;20531;-77
2022/09/24 10:08:26;;;;;;;10.70;9.30;;;17.70;1.00;;;;;;5032173;28;20783;-78
2022/09/24 10:10:56;;;;;;;10.57;8.10;;;17.70;1.00;;;;;;5045880;28;20458;-78
2022/09/24 10:13:23;;;;;;;13.37;10.70;;;17.70;1.00;;;;;;5043859;28;20514;-78
2022/09/24 10:15:53;;;;;;;10.97;9.97;;;17.70;1.00;;;;;;5047689;28;20473;-76
2022/09/24 10:18:31;;;;;;;12.90;9.90;;;17.90;1.00;;;;;;5049679;28;20475;-77
2022/09/24 10:21:02;;;;;;;11.30;10.20;;;18.10;1.00;;;;;;5039670;28;20543;-78
2022/09/24 10:23:36;;;;;;;10.60;9.30;;;18.20;1.00;;;;;;5046498;28;20464;-75
2022/09/24 10:26:06;;;;;;;9.67;8.40;;;18.00;1.00;;;;;;5048547;28;20448;-79
2022/09/24 10:31:22;;;;;;;11.50;9.33;;;17.50;1.00;;;;;;5047879;28;20469;-77
2022/09/24 10:33:53;;;;;;;11.30;8.80;;;17.60;1.00;;;;;;5043844;28;20832;-77
2022/09/24 10:36:24;;;;;;;9.63;8.13;;;17.60;1.00;;;;;;5046944;28;20472;-76
2022/09/24 10:39:03;;;;;;;8.93;7.20;;;17.80;1.00;;;;;;5044899;28;20472;-75
2022/09/24 10:41:32;;;;;;;9.00;6.87;;;17.90;1.00;;;;;;5046304;28;20479;-75
2022/09/24 10:44:04;;;;;;;10.77;7.53;;;17.60;1.00;;;;;;5049825;28;20459;-77
2022/09/24 10:46:56;;;;;;;12.17;8.63;;;17.70;1.00;;;;;;5045975;28;20543;-78
2022/09/24 10:49:35;;;;;;;8.17;6.93;;;17.90;1.00;;;;;;5045505;28;20827;-77
2022/09/24 10:52:16;;;;;;;7.63;6.73;;;17.70;1.00;;;;;;5043093;28;20490;-77
2022/09/24 10:54:58;;;;;;;10.80;8.07;;;17.50;1.00;;;;;;5044769;28;20491;-76
2022/09/24 10:57:34;;;;;;;7.20;6.50;;;17.50;1.00;;;;;;5034744;28;20460;-79
2022/09/24 11:00:12;;;;;;;6.77;6.07;;;17.60;1.00;;;;;;5046575;28;20443;-78
2022/09/24 11:03:19;;;;;;;10.17;7.40;;;17.70;1.00;;;;;;5046404;28;20488;-79
2022/09/24 11:05:54;;;;;;;9.10;7.20;;;17.80;1.00;;;;;;5045568;28;20527;-78
2022/09/24 11:08:31;;;;;;;8.13;6.90;;;18.00;1.00;;;;;;5046285;28;21024;-75
2022/09/24 11:11:16;;;;;;;9.53;6.83;;;18.20;1.00;;;;;;5045647;28;20841;-77
2022/09/24 11:13:56;;;;;;;9.63;7.43;;;18.40;1.00;;;;;;5047545;28;20977;-76
2022/09/24 11:16:44;;;;;;;7.87;6.40;;;18.50;1.00;;;;;;5047594;28;20559;-77
2022/09/24 11:19:24;;;;;;;8.47;7.20;;;18.50;1.00;;;;;;5053408;28;20506;-79
2022/09/24 11:22:07;;;;;;;12.23;7.03;;;18.60;1.00;;;;;;5049992;28;20424;-77
2022/09/24 11:24:50;;;;;;;7.53;6.73;;;18.80;1.00;;;;;;5051066;28;20475;-78
2022/09/24 11:27:41;;;;;;;7.67;6.37;;;18.80;1.00;;;;;;5046197;28;20452;-76
2022/09/24 11:30:14;;;;;;;7.57;6.00;;;18.90;1.00;;;;;;5052439;28;20479;-80
2022/09/24 11:32:57;;;;;;;7.67;6.60;;;19.00;1.00;;;;;;5046593;28;20468;-78
2022/09/24 11:35:38;;;;;;;9.50;7.70;;;19.20;1.00;;;;;;5048396;28;20472;-78
2022/09/24 11:38:10;;;;;;;8.53;7.67;;;19.50;1.00;;;;;;5045152;28;20452;-80
2022/09/24 11:40:51;;;;;;;6.60;5.90;;;19.80;1.00;;;;;;5050592;28;20472;-74
2022/09/24 11:43:42;;;;;;;7.10;6.17;;;20.00;1.00;;;;;;5049174;28;20468;-77
2022/09/24 11:46:27;;;;;;;6.93;5.80;;;20.10;1.00;;;;;;5050499;28;20463;-76
2022/09/24 11:49:22;;;;;;;7.43;6.30;;;20.10;1.00;;;;;;5046664;28;21698;-77
2022/09/24 11:51:56;;;;;;;7.00;5.67;;;20.00;1.00;;;;;;5025597;28;20470;-77
2022/09/24 11:54:32;;;;;;;7.60;6.77;;;20.20;1.00;;;;;;5030943;28;20459;-77
2022/09/24 11:57:03;;;;;;;6.57;5.83;;;20.10;1.00;;;;;;5044072;28;21152;-76
2022/09/24 11:59:39;;;;;;;6.17;5.43;;;20.00;1.00;;;;;;5052738;28;20929;-77
2022/09/24 12:02:18;;;;;;;7.40;6.00;;;19.80;1.00;;;;;;5048157;28;20498;-78
2022/09/24 12:04:52;;;;;;;8.37;6.87;;;19.60;1.00;;;;;;5045910;28;21312;-76
2022/09/24 12:07:26;;;;;;;10.90;9.80;;;19.50;1.00;;;;;;5042890;28;20445;-76
2022/09/24 12:09:59;;;;;;;7.67;6.10;;;19.20;1.00;;;;;;5045547;28;20897;-76
2022/09/24 12:12:30;;;;;;;7.03;6.17;;;19.00;1.00;;;;;;5047192;28;20460;-77
2022/09/24 12:15:02;;;;;;;8.83;6.90;;;18.90;1.00;;;;;;5048490;28;21220;-77
2022/09/24 12:17:37;;;;;;;7.63;6.57;;;18.70;1.00;;;;;;5050044;28;20497;-76
2022/09/24 12:20:13;;;;;;;8.87;6.33;;;18.50;1.00;;;;;;5046186;28;20984;-77
2022/09/24 12:22:45;;;;;;;13.23;7.90;;;18.40;1.00;;;;;;5047002;28;20911;-79
2022/09/24 12:25:13;;;;;;;9.17;8.00;;;18.40;1.00;;;;;;5048153;28;20416;-77
2022/09/24 12:27:40;;;;;;;9.33;8.30;;;18.30;1.00;;;;;;5046126;28;20474;-75
2022/09/24 12:33:19;;;;;;;9.07;8.17;;;18.30;1.00;;;;;;5050357;28;20460;-78
2022/09/24 12:35:57;;;;;;;10.60;7.40;;;18.30;1.00;;;;;;5051459;28;20424;-78
2022/09/24 12:38:31;;;;;;;9.97;8.93;;;18.20;1.00;;;;;;5049227;28;20463;-75
2022/09/24 12:41:30;;;;;;;10.10;7.80;;;18.20;1.00;;;;;;5047644;28;20452;-77
2022/09/24 12:44:06;;;;;;;9.67;7.30;;;18.30;1.00;;;;;;5044953;28;20942;-77
2022/09/24 12:46:39;;;;;;;11.20;7.37;;;18.40;1.00;;;;;;5043552;28;20844;-79
2022/09/24 12:49:23;;;;;;;8.70;7.40;;;18.60;1.00;;;;;;5045821;28;20492;-76
2022/09/24 12:51:51;;;;;;;9.37;7.47;;;18.80;1.00;;;;;;5048526;28;20767;-77
2022/09/24 12:54:28;;;;;;;10.03;7.00;;;19.00;1.00;;;;;;5030638;28;21015;-75
2022/09/24 12:57:11;;;;;;;9.50;8.50;;;19.20;1.00;;;;;;5042755;28;20467;-77
2022/09/24 12:59:50;;;;;;;7.20;6.50;;;19.20;1.00;;;;;;5040172;28;20472;-76
2022/09/24 13:02:20;;;;;;;9.80;7.63;;;19.00;1.00;;;;;;5029259;28;20917;-76
2022/09/24 13:05:04;;;;;;;8.63;6.23;;;19.00;1.00;;;;;;5043187;28;20928;-77
2022/09/24 13:07:34;;;;;;;7.67;6.60;;;18.80;1.00;;;;;;5043924;28;20461;-78
2022/09/24 13:10:23;;;;;;;8.77;6.93;;;18.80;1.00;;;;;;5038250;28;20563;-78
2022/09/24 13:12:51;;;;;;;9.83;7.23;;;18.80;1.00;;;;;;5039590;28;20570;-76
2022/09/24 13:15:27;;;;;;;18.00;16.13;;;18.90;1.00;;;;;;5034010;28;20727;-80
2022/09/24 13:18:03;;;;;;;10.23;9.17;;;19.00;1.00;;;;;;5040440;28;21248;-81
2022/09/24 13:20:34;;;;;;;8.50;7.60;;;19.00;1.00;;;;;;5041346;28;20476;-76
2022/09/24 13:23:30;;;;;;;9.67;8.13;;;19.10;1.00;;;;;;5041470;28;20526;-79
2022/09/24 13:26:01;;;;;;;7.40;6.70;;;19.10;1.00;;;;;;5042387;28;20488;-78
2022/09/24 13:28:30;;;;;;;7.60;6.90;;;19.10;1.00;;;;;;5033066;28;20480;-75
2022/09/24 13:31:03;;;;;;;7.40;6.50;;;19.20;1.00;;;;;;5044008;28;20562;-77
2022/09/24 13:33:35;;;;;;;9.77;8.07;;;19.20;1.00;;;;;;5042612;28;20475;-77
2022/09/24 13:36:13;;;;;;;9.87;8.87;;;19.30;1.00;;;;;;5045489;28;20452;-79
2022/09/24 13:38:48;;;;;;;7.83;6.70;;;19.40;1.00;;;;;;5042012;28;21213;-78
2022/09/24 13:41:24;;;;;;;7.97;7.17;;;19.40;1.00;;;;;;5043559;28;20558;-79
2022/09/24 13:43:56;;;;;;;9.73;7.40;;;19.40;1.00;;;;;;5044374;28;21885;-77
2022/09/24 13:46:26;;;;;;;7.23;6.30;;;19.40;1.00;;;;;;5046358;28;20555;-77
2022/09/24 13:48:56;;;;;;;10.53;6.63;;;19.50;1.00;;;;;;5043107;28;20900;-76